Time;durP1;ratioP1;P1;durP2;ratioP2;P2;SDS_P1;SDS_P2;PMS_P1;PMS_P2;Temp;Humidity;BMP_temperature;BMP_pressure;BME280_temperature;BME280_humidity;BME280_pressure;Samples;Min_cycle;Max_cycle;Signal;HPM_P1;HPM_P2
2022/03/16 00:00:37;;;;;;;13.83;9.40;;;7.90;99.90;;;;;;5061042;28;20398;-80
2022/03/16 00:03:22;;;;;;;11.97;9.83;;;7.90;99.90;;;;;;5061493;28;20460;-80
2022/03/16 00:06:06;;;;;;;9.90;7.57;;;7.90;99.90;;;;;;5061691;28;20726;-80
2022/03/16 00:08:52;;;;;;;12.67;9.03;;;7.90;99.90;;;;;;5061338;28;20448;-80
2022/03/16 00:11:36;;;;;;;11.00;8.10;;;7.90;99.90;;;;;;5061086;28;20386;-79
2022/03/16 00:14:21;;;;;;;13.27;10.00;;;7.90;99.90;;;;;;5058733;28;20374;-80
2022/03/16 00:17:06;;;;;;;12.80;8.47;;;7.90;99.90;;;;;;5060202;28;20467;-80
2022/03/16 00:19:51;;;;;;;9.60;8.33;;;7.90;99.90;;;;;;5059129;28;20882;-80
2022/03/16 00:22:36;;;;;;;14.70;10.83;;;7.90;99.90;;;;;;5038068;28;20427;-79
2022/03/16 00:25:20;;;;;;;11.93;8.87;;;8.00;99.90;;;;;;5037491;28;20382;-80
2022/03/16 00:28:05;;;;;;;10.33;9.30;;;7.90;99.90;;;;;;5024529;28;20782;-80
2022/03/16 00:30:49;;;;;;;10.77;9.10;;;8.00;99.90;;;;;;5038477;28;20376;-80
2022/03/16 00:33:34;;;;;;;9.93;8.93;;;8.00;99.90;;;;;;5037579;28;20383;-80
2022/03/16 00:36:21;;;;;;;14.43;9.50;;;8.00;99.90;;;;;;5038268;28;20414;-78
2022/03/16 00:39:05;;;;;;;14.00;10.97;;;7.90;99.90;;;;;;5038117;28;20483;-80
2022/03/16 00:41:50;;;;;;;14.33;11.20;;;7.90;99.90;;;;;;5048314;28;20409;-79
2022/03/16 00:44:35;;;;;;;12.40;10.90;;;7.90;99.90;;;;;;5057765;28;20434;-79
2022/03/16 00:47:19;;;;;;;14.57;11.07;;;7.80;99.90;;;;;;5058077;28;20470;-79
2022/03/16 00:50:05;;;;;;;15.00;10.53;;;7.90;99.90;;;;;;5046857;28;20913;-79
2022/03/16 00:52:49;;;;;;;17.13;11.20;;;7.80;99.90;;;;;;5044651;28;20444;-79
2022/03/16 00:55:34;;;;;;;13.40;11.47;;;7.80;99.90;;;;;;5059602;28;20480;-80
2022/03/16 00:58:19;;;;;;;12.17;9.60;;;7.80;99.90;;;;;;5059775;28;20390;-80
2022/03/16 01:01:05;;;;;;;13.60;9.27;;;7.80;99.90;;;;;;5059100;28;20417;-79
2022/03/16 01:03:50;;;;;;;18.20;13.40;;;7.70;99.90;;;;;;5056801;28;20469;-79
2022/03/16 01:06:34;;;;;;;14.00;10.33;;;7.70;99.90;;;;;;5059162;28;20163;-80
2022/03/16 01:09:20;;;;;;;9.57;8.53;;;7.70;99.90;;;;;;5059323;28;20378;-80
2022/03/16 01:12:07;;;;;;;11.17;9.43;;;7.70;99.90;;;;;;5057940;28;20933;-80
2022/03/16 01:14:52;;;;;;;11.83;9.70;;;7.80;99.90;;;;;;5062165;28;20432;-80
2022/03/16 01:17:36;;;;;;;13.97;10.17;;;7.90;99.90;;;;;;5059491;28;20422;-80
2022/03/16 01:20:21;;;;;;;13.00;9.87;;;7.90;99.90;;;;;;5058102;28;20440;-80
2022/03/16 01:23:06;;;;;;;14.40;9.90;;;7.80;99.90;;;;;;5058976;28;20395;-79
2022/03/16 01:25:50;;;;;;;13.80;8.83;;;7.90;99.90;;;;;;5059475;28;20653;-79
2022/03/16 01:28:34;;;;;;;11.47;10.03;;;7.90;99.90;;;;;;5058816;28;20526;-79
2022/03/16 01:31:20;;;;;;;14.90;9.60;;;7.90;99.90;;;;;;5061413;28;20894;-79
2022/03/16 01:34:05;;;;;;;14.30;9.37;;;7.80;99.90;;;;;;5058649;28;20374;-79
2022/03/16 01:36:50;;;;;;;11.60;9.67;;;7.80;99.90;;;;;;5058575;28;20517;-79
2022/03/16 01:39:34;;;;;;;15.67;11.17;;;7.80;99.90;;;;;;5058449;28;20926;-79
2022/03/16 01:42:20;;;;;;;21.30;11.73;;;7.80;99.90;;;;;;5057815;28;20389;-79
2022/03/16 01:45:06;;;;;;;13.13;10.90;;;7.80;99.90;;;;;;5058033;28;20445;-79
2022/03/16 01:47:50;;;;;;;14.10;11.17;;;7.90;99.90;;;;;;5058330;28;20814;-79
2022/03/16 01:50:35;;;;;;;17.43;12.33;;;7.90;99.90;;;;;;5057872;28;20390;-79
2022/03/16 01:53:20;;;;;;;17.70;12.30;;;7.80;99.90;;;;;;5057621;28;20393;-79
2022/03/16 01:56:05;;;;;;;18.57;12.70;;;7.90;99.90;;;;;;5058226;28;20850;-79
2022/03/16 01:58:49;;;;;;;14.17;11.60;;;7.80;99.90;;;;;;5057071;28;20402;-79
2022/03/16 02:01:37;;;;;;;14.80;12.40;;;7.80;99.90;;;;;;5057987;28;20991;-79
2022/03/16 02:04:21;;;;;;;26.10;13.80;;;7.70;99.90;;;;;;5059516;28;20525;-79
2022/03/16 02:07:07;;;;;;;22.20;15.47;;;7.70;99.90;;;;;;5059453;28;20453;-79
2022/03/16 02:09:53;;;;;;;15.40;12.37;;;7.70;99.90;;;;;;5061389;28;20398;-77
2022/03/16 02:12:47;;;;;;;21.40;14.77;;;7.60;99.90;;;;;;5060817;28;20894;-79
2022/03/16 02:15:32;;;;;;;15.93;12.23;;;7.70;99.90;;;;;;5059992;28;20669;-79
2022/03/16 02:18:16;;;;;;;23.23;14.23;;;7.70;99.90;;;;;;5060342;28;20390;-79
2022/03/16 02:21:05;;;;;;;15.17;12.47;;;7.70;99.90;;;;;;5060974;28;20401;-79
2022/03/16 02:23:50;;;;;;;16.83;12.77;;;7.70;99.90;;;;;;5059470;28;20432;-79
2022/03/16 02:26:35;;;;;;;21.23;12.50;;;7.70;99.90;;;;;;5073154;28;20382;-79
2022/03/16 02:29:19;;;;;;;15.07;12.30;;;7.60;99.90;;;;;;5073477;28;20386;-81
2022/03/16 02:32:05;;;;;;;17.60;13.80;;;7.70;99.90;;;;;;5069040;28;20409;-81
2022/03/16 02:34:49;;;;;;;18.03;14.10;;;7.70;99.90;;;;;;5065611;28;20381;-81
2022/03/16 02:37:37;;;;;;;19.30;12.83;;;7.60;99.90;;;;;;5066472;28;20409;-81
2022/03/16 02:40:22;;;;;;;18.97;12.57;;;7.60;99.90;;;;;;5063142;28;20456;-81
2022/03/16 02:43:07;;;;;;;14.33;11.93;;;7.70;99.90;;;;;;5057131;28;20464;-80
2022/03/16 02:45:51;;;;;;;21.20;14.50;;;7.60;99.90;;;;;;5069944;28;20460;-79
2022/03/16 02:48:36;;;;;;;18.90;13.73;;;7.60;99.90;;;;;;5055865;28;20429;-79
2022/03/16 02:51:20;;;;;;;21.23;12.73;;;7.60;99.90;;;;;;5057056;28;20460;-80
2022/03/16 02:54:04;;;;;;;18.20;12.73;;;7.60;99.90;;;;;;5057051;28;20936;-80
2022/03/16 02:56:49;;;;;;;16.30;12.50;;;7.60;99.90;;;;;;5056893;28;20385;-80
2022/03/16 02:59:34;;;;;;;19.90;12.37;;;7.60;99.90;;;;;;5057829;28;20471;-80
2022/03/16 03:02:18;;;;;;;16.37;12.17;;;7.50;99.90;;;;;;5059191;28;20870;-80
2022/03/16 03:05:04;;;;;;;16.57;12.43;;;7.50;99.90;;;;;;5059403;28;20984;-79
2022/03/16 03:07:48;;;;;;;13.00;11.10;;;7.50;99.90;;;;;;5060137;28;20461;-80
2022/03/16 03:10:33;;;;;;;12.93;11.47;;;7.40;99.90;;;;;;5069659;28;20436;-79
2022/03/16 03:13:18;;;;;;;16.70;11.10;;;7.30;99.90;;;;;;5072568;28;20389;-79
2022/03/16 03:16:04;;;;;;;18.10;13.70;;;7.30;99.90;;;;;;5071444;28;20390;-80
2022/03/16 03:18:49;;;;;;;17.03;11.10;;;7.20;99.90;;;;;;5069802;28;20382;-79
2022/03/16 03:21:34;;;;;;;15.17;11.20;;;7.00;99.90;;;;;;5077446;28;20394;-79
2022/03/16 03:24:18;;;;;;;18.60;11.57;;;7.00;99.90;;;;;;5077307;28;20389;-79
2022/03/16 03:27:03;;;;;;;18.60;12.27;;;7.10;99.90;;;;;;5078727;28;20448;-80
2022/03/16 03:29:48;;;;;;;21.07;12.50;;;7.10;99.90;;;;;;5079948;28;20457;-78
2022/03/16 03:32:32;;;;;;;16.47;12.10;;;7.10;99.90;;;;;;5080766;28;20409;-79
2022/03/16 03:35:17;;;;;;;20.37;12.87;;;7.10;99.90;;;;;;5068424;28;20385;-80
2022/03/16 03:38:02;;;;;;;15.00;10.97;;;7.10;99.90;;;;;;5061698;28;20800;-80
2022/03/16 03:40:46;;;;;;;16.00;12.50;;;7.20;99.90;;;;;;5061113;28;20473;-80
2022/03/16 03:43:31;;;;;;;18.50;12.90;;;7.20;99.90;;;;;;5061971;28;20427;-80
2022/03/16 03:46:15;;;;;;;15.50;11.77;;;7.20;99.90;;;;;;5064412;28;20409;-79
2022/03/16 03:49:00;;;;;;;18.83;11.33;;;7.10;99.90;;;;;;5078227;28;20441;-78
2022/03/16 03:51:44;;;;;;;20.53;10.90;;;7.20;99.90;;;;;;5080173;28;20436;-77
2022/03/16 03:54:29;;;;;;;17.87;11.70;;;7.30;99.90;;;;;;5080535;28;20386;-78
2022/03/16 03:57:13;;;;;;;16.20;11.60;;;7.30;99.90;;;;;;5071455;28;20381;-79
2022/03/16 03:59:58;;;;;;;16.70;11.30;;;7.30;99.90;;;;;;5062046;28;20464;-80
2022/03/16 04:02:48;;;;;;;19.30;10.37;;;7.30;99.90;;;;;;5060611;28;20409;-79
2022/03/16 04:05:32;;;;;;;16.97;12.37;;;7.20;99.90;;;;;;5060147;28;20398;-79
2022/03/16 04:08:17;;;;;;;15.40;9.00;;;7.30;99.90;;;;;;5060626;28;20445;-78
2022/03/16 04:11:02;;;;;;;18.10;11.27;;;7.20;99.90;;;;;;5060504;28;20400;-79
2022/03/16 04:13:46;;;;;;;18.63;12.10;;;7.10;99.90;;;;;;5069137;28;20382;-79
2022/03/16 04:16:31;;;;;;;13.20;9.60;;;6.70;99.90;;;;;;5060980;28;20382;-79
2022/03/16 04:19:16;;;;;;;14.33;10.03;;;6.40;99.90;;;;;;5059556;28;20390;-80
2022/03/16 04:22:01;;;;;;;10.23;8.93;;;6.30;99.90;;;;;;5059897;28;20397;-80
2022/03/16 04:24:46;;;;;;;17.93;12.70;;;6.40;99.90;;;;;;5059416;28;20386;-80
2022/03/16 04:27:31;;;;;;;14.57;9.70;;;6.30;99.90;;;;;;5057788;28;20938;-80
2022/03/16 04:30:16;;;;;;;16.83;9.93;;;6.30;99.90;;;;;;5059712;28;20846;-79
2022/03/16 04:33:00;;;;;;;15.87;10.67;;;6.40;99.90;;;;;;5058910;28;20389;-80
2022/03/16 04:35:45;;;;;;;14.50;11.97;;;6.50;99.90;;;;;;5059758;28;20402;-80
2022/03/16 04:38:30;;;;;;;17.90;11.97;;;6.60;99.90;;;;;;5059963;28;20394;-80
2022/03/16 04:41:14;;;;;;;19.77;13.20;;;6.50;99.90;;;;;;5059236;28;20451;-80
2022/03/16 04:43:59;;;;;;;20.03;13.83;;;6.40;99.90;;;;;;5059536;28;20398;-80
2022/03/16 04:46:43;;;;;;;17.70;13.90;;;6.50;99.90;;;;;;5053989;28;20921;-80
2022/03/16 04:49:28;;;;;;;15.17;11.90;;;6.50;99.90;;;;;;5051744;28;20414;-80
2022/03/16 04:52:12;;;;;;;19.50;11.20;;;6.40;99.90;;;;;;5059278;28;20386;-79
2022/03/16 04:54:57;;;;;;;19.00;13.10;;;6.50;99.90;;;;;;5059210;28;20449;-79
2022/03/16 04:57:42;;;;;;;16.80;13.33;;;6.50;99.90;;;;;;5059326;28;20413;-79
2022/03/16 05:00:26;;;;;;;23.07;13.17;;;6.50;99.90;;;;;;5057718;28;20764;-80
2022/03/16 05:03:11;;;;;;;17.60;13.80;;;6.60;99.90;;;;;;5058861;28;20513;-80
2022/03/16 05:05:57;;;;;;;18.33;12.20;;;6.60;99.90;;;;;;5059542;28;20394;-80
2022/03/16 05:08:41;;;;;;;21.03;13.00;;;6.60;99.90;;;;;;5058265;28;20453;-79
2022/03/16 05:11:26;;;;;;;14.10;10.07;;;6.50;99.90;;;;;;5058398;28;20444;-80
2022/03/16 05:14:10;;;;;;;11.50;9.23;;;6.50;99.90;;;;;;5058879;28;20397;-79
2022/03/16 05:16:55;;;;;;;18.80;13.07;;;6.40;99.90;;;;;;5058937;28;20393;-78
2022/03/16 05:19:40;;;;;;;16.57;12.20;;;6.40;99.90;;;;;;5059195;28;20393;-80
2022/03/16 05:22:24;;;;;;;17.77;11.53;;;6.40;99.90;;;;;;5059196;28;20418;-80
2022/03/16 05:25:11;;;;;;;13.60;10.77;;;6.30;99.90;;;;;;5058830;28;20436;-80
2022/03/16 05:27:55;;;;;;;14.40;9.63;;;6.20;99.90;;;;;;5058920;28;20955;-79
2022/03/16 05:30:40;;;;;;;22.47;12.60;;;6.10;99.90;;;;;;5058624;28;20389;-80
2022/03/16 05:33:24;;;;;;;25.00;12.30;;;6.10;99.90;;;;;;5058503;28;20417;-80
2022/03/16 05:36:09;;;;;;;25.07;13.47;;;6.00;99.90;;;;;;5058456;28;20397;-80
2022/03/16 05:38:54;;;;;;;19.67;13.83;;;6.10;99.90;;;;;;5059054;28;20389;-80
2022/03/16 05:41:38;;;;;;;16.10;10.87;;;6.10;99.90;;;;;;5057957;28;20393;-80
2022/03/16 05:44:23;;;;;;;15.20;11.30;;;6.10;99.90;;;;;;5058885;28;20461;-80
2022/03/16 05:47:07;;;;;;;15.07;10.43;;;6.10;99.90;;;;;;5057959;28;20473;-80
2022/03/16 05:49:54;;;;;;;15.97;12.37;;;5.90;99.90;;;;;;5058872;28;20944;-80
2022/03/16 05:52:40;;;;;;;15.63;11.17;;;5.80;99.90;;;;;;5059780;28;20397;-80
2022/03/16 05:55:25;;;;;;;14.70;10.83;;;5.80;99.90;;;;;;5064562;28;20489;-79
2022/03/16 05:58:10;;;;;;;13.17;11.20;;;5.80;99.90;;;;;;5058797;28;20420;-81
2022/03/16 06:00:54;;;;;;;13.57;9.57;;;6.00;99.90;;;;;;5058418;28;20402;-80
2022/03/16 06:03:39;;;;;;;13.07;10.00;;;6.10;99.90;;;;;;5058758;28;20465;-80
2022/03/16 06:06:23;;;;;;;14.50;10.40;;;6.10;99.90;;;;;;5059943;28;20381;-78
2022/03/16 06:09:08;;;;;;;16.60;10.93;;;6.20;99.90;;;;;;5059780;28;20386;-80
2022/03/16 06:11:53;;;;;;;20.87;11.47;;;6.30;99.90;;;;;;5059027;28;20370;-81
2022/03/16 06:14:37;;;;;;;17.93;10.90;;;6.30;99.90;;;;;;5059832;28;20925;-81
2022/03/16 06:17:21;;;;;;;18.30;13.40;;;6.30;99.90;;;;;;5060677;28;20508;-80
2022/03/16 06:20:06;;;;;;;12.40;10.70;;;6.40;99.90;;;;;;5058261;28;20382;-80
2022/03/16 06:22:50;;;;;;;18.57;11.30;;;6.50;99.90;;;;;;5058530;28;20379;-80
2022/03/16 06:25:35;;;;;;;19.70;11.33;;;6.50;99.90;;;;;;5058927;28;20386;-80
2022/03/16 06:28:20;;;;;;;12.50;10.83;;;6.50;99.90;;;;;;5057989;28;20445;-80
2022/03/16 06:31:04;;;;;;;16.30;9.60;;;6.60;99.90;;;;;;5057524;28;20500;-80
2022/03/16 06:33:49;;;;;;;12.53;10.40;;;6.60;99.90;;;;;;5058707;28;20424;-81
2022/03/16 06:36:33;;;;;;;17.07;10.93;;;6.70;99.90;;;;;;5065050;28;20413;-79
2022/03/16 06:39:18;;;;;;;13.37;10.13;;;6.70;99.90;;;;;;5066786;28;20494;-80
2022/03/16 06:42:03;;;;;;;14.00;9.50;;;6.70;99.90;;;;;;5071063;28;20412;-80
2022/03/16 06:44:48;;;;;;;16.23;10.10;;;6.70;99.90;;;;;;5069870;28;20477;-79
2022/03/16 06:47:32;;;;;;;12.97;10.07;;;6.80;99.90;;;;;;5065730;28;20469;-80
2022/03/16 06:50:18;;;;;;;17.30;9.57;;;6.70;99.90;;;;;;5040226;28;20869;-81
2022/03/16 06:53:03;;;;;;;14.67;10.73;;;6.70;99.90;;;;;;5045437;28;20405;-79
2022/03/16 06:55:47;;;;;;;14.50;9.57;;;6.70;99.90;;;;;;5044044;28;20430;-80
2022/03/16 06:58:35;;;;;;;16.67;10.23;;;6.70;99.90;;;;;;5078639;28;20446;-80
2022/03/16 07:01:20;;;;;;;19.40;11.60;;;6.70;99.90;;;;;;5042311;28;20430;-81
2022/03/16 07:04:05;;;;;;;18.73;11.13;;;6.70;99.90;;;;;;5037006;28;20465;-80
2022/03/16 07:06:51;;;;;;;17.10;9.80;;;6.70;99.90;;;;;;5035013;28;20485;-80
2022/03/16 07:09:35;;;;;;;14.17;11.37;;;6.70;99.90;;;;;;5041992;28;20411;-80
2022/03/16 07:12:26;;;;;;;14.90;12.50;;;6.70;99.90;;;;;;5048225;28;20429;-82
2022/03/16 07:15:11;;;;;;;9.43;8.03;;;6.80;99.90;;;;;;5051729;28;20411;-80
2022/03/16 07:17:59;;;;;;;14.73;11.13;;;6.70;99.90;;;;;;5046464;28;20417;-80
2022/03/16 07:20:43;;;;;;;22.57;14.20;;;6.80;99.90;;;;;;5049563;28;20433;-80
2022/03/16 07:23:28;;;;;;;15.30;10.53;;;6.70;99.90;;;;;;5055397;28;20409;-81
2022/03/16 07:26:13;;;;;;;14.03;10.20;;;6.50;99.90;;;;;;5051762;28;20434;-81
2022/03/16 07:28:57;;;;;;;17.87;12.63;;;6.60;99.90;;;;;;5045306;28;20453;-80
2022/03/16 07:31:42;;;;;;;18.73;12.40;;;6.60;99.90;;;;;;5048239;28;20489;-80
2022/03/16 07:34:27;;;;;;;16.97;13.70;;;6.70;99.90;;;;;;5049682;28;20525;-80
2022/03/16 07:37:11;;;;;;;14.47;9.90;;;6.80;99.90;;;;;;5052409;28;20433;-80
2022/03/16 07:39:56;;;;;;;23.37;11.83;;;6.50;99.90;;;;;;5055350;28;20476;-81
2022/03/16 07:42:46;;;;;;;30.73;16.03;;;6.40;99.90;;;;;;5046041;28;20427;-80
2022/03/16 07:45:30;;;;;;;23.93;14.83;;;6.30;99.90;;;;;;5050623;28;20442;-81
2022/03/16 07:48:15;;;;;;;24.13;15.13;;;6.60;99.90;;;;;;5050408;28;20487;-80
2022/03/16 07:51:02;;;;;;;20.03;12.73;;;6.50;99.90;;;;;;5047825;28;20461;-80
2022/03/16 07:53:47;;;;;;;19.67;13.50;;;6.70;99.90;;;;;;5056572;28;20435;-79
2022/03/16 07:56:32;;;;;;;20.17;13.10;;;6.90;99.90;;;;;;5048983;28;20522;-80
2022/03/16 07:59:17;;;;;;;23.70;15.00;;;6.70;99.90;;;;;;5050682;28;20458;-81
2022/03/16 08:02:03;;;;;;;21.60;15.03;;;6.80;99.90;;;;;;5051413;28;20823;-80
2022/03/16 08:04:47;;;;;;;20.60;12.00;;;6.80;99.90;;;;;;5050598;28;21251;-81
2022/03/16 08:07:32;;;;;;;18.50;12.33;;;7.00;99.90;;;;;;5045469;28;20864;-81
2022/03/16 08:10:17;;;;;;;20.57;14.63;;;7.40;99.90;;;;;;5047914;28;20418;-80
2022/03/16 08:13:02;;;;;;;19.37;14.53;;;7.50;99.90;;;;;;5048949;28;20422;-81
2022/03/16 08:15:47;;;;;;;18.47;12.97;;;7.40;99.90;;;;;;5050340;28;20472;-80
2022/03/16 08:18:32;;;;;;;19.90;14.87;;;7.50;99.90;;;;;;5048432;28;20497;-80
2022/03/16 08:21:16;;;;;;;20.23;14.73;;;7.70;99.90;;;;;;5045016;28;20426;-80
2022/03/16 08:24:01;;;;;;;19.17;11.87;;;8.10;99.90;;;;;;5045418;28;20479;-81
2022/03/16 08:26:46;;;;;;;22.03;13.90;;;8.30;99.90;;;;;;5050685;28;20445;-78
2022/03/16 08:29:30;;;;;;;29.40;16.90;;;8.30;99.90;;;;;;5046693;28;20450;-81
2022/03/16 08:32:17;;;;;;;25.70;15.13;;;8.50;99.90;;;;;;5048776;28;20426;-79
2022/03/16 08:35:03;;;;;;;21.80;14.60;;;8.60;99.90;;;;;;5046983;28;20446;-81
2022/03/16 08:37:48;;;;;;;24.67;15.40;;;8.80;99.90;;;;;;5046737;28;20906;-79
2022/03/16 08:40:32;;;;;;;21.27;15.13;;;9.00;99.90;;;;;;5042883;28;20593;-80
2022/03/16 08:43:17;;;;;;;26.47;13.57;;;9.20;99.90;;;;;;5046677;28;20473;-79
2022/03/16 08:46:01;;;;;;;20.50;14.73;;;9.10;99.90;;;;;;5031857;28;20472;-80
2022/03/16 08:48:46;;;;;;;26.53;15.33;;;9.20;99.90;;;;;;5045028;28;21481;-80
2022/03/16 08:51:31;;;;;;;24.20;15.47;;;9.20;99.90;;;;;;5046380;28;20494;-79
2022/03/16 08:54:16;;;;;;;19.20;13.20;;;9.50;99.90;;;;;;5044201;28;20427;-79
2022/03/16 08:57:01;;;;;;;23.67;16.50;;;9.80;99.90;;;;;;5046213;28;20668;-80
2022/03/16 08:59:46;;;;;;;24.63;18.37;;;9.70;99.90;;;;;;5043973;28;20418;-79
2022/03/16 09:02:30;;;;;;;20.67;14.97;;;9.50;99.90;;;;;;5046454;28;20425;-80
2022/03/16 09:05:17;;;;;;;19.40;14.47;;;10.20;99.90;;;;;;5043648;28;20438;-80
2022/03/16 09:08:03;;;;;;;16.03;12.03;;;10.60;99.90;;;;;;5040220;28;20478;-80
2022/03/16 09:10:48;;;;;;;21.60;14.50;;;11.00;99.90;;;;;;5044627;28;20780;-80
2022/03/16 09:13:34;;;;;;;17.17;14.10;;;11.10;99.90;;;;;;5037084;28;20569;-80
2022/03/16 09:16:19;;;;;;;22.00;14.30;;;11.40;99.90;;;;;;5041192;28;20470;-79
2022/03/16 09:19:04;;;;;;;20.40;14.90;;;11.50;99.90;;;;;;5045843;28;20584;-80
2022/03/16 09:21:50;;;;;;;20.23;14.53;;;11.50;99.90;;;;;;5049361;28;20499;-80
2022/03/16 09:24:38;;;;;;;20.43;15.00;;;11.70;99.90;;;;;;5040135;28;20479;-81
2022/03/16 09:27:24;;;;;;;22.90;15.80;;;11.80;99.90;;;;;;5046287;28;20450;-81
2022/03/16 09:30:09;;;;;;;27.07;15.27;;;12.10;99.90;;;;;;5044155;28;20549;-80
2022/03/16 09:32:57;;;;;;;20.87;15.87;;;12.30;99.90;;;;;;5050528;28;20920;-80
2022/03/16 09:35:44;;;;;;;19.47;14.33;;;12.40;99.90;;;;;;5040134;28;20434;-79
2022/03/16 09:38:28;;;;;;;19.93;14.63;;;12.90;99.90;;;;;;5046696;28;20418;-81
2022/03/16 09:41:12;;;;;;;17.37;13.47;;;13.80;99.90;;;;;;5049885;28;20437;-80
2022/03/16 09:43:57;;;;;;;23.43;14.73;;;13.70;99.90;;;;;;5043942;28;20426;-81
2022/03/16 09:46:45;;;;;;;19.23;14.57;;;13.50;99.90;;;;;;5043629;28;20421;-80
2022/03/16 09:49:30;;;;;;;20.87;15.27;;;13.00;99.90;;;;;;5047787;28;20814;-79
2022/03/16 09:52:15;;;;;;;20.90;13.53;;;12.40;99.90;;;;;;5056571;28;20438;-79
2022/03/16 09:55:01;;;;;;;21.37;14.20;;;13.10;99.90;;;;;;5057824;28;20464;-79
2022/03/16 09:57:46;;;;;;;22.23;15.40;;;13.40;99.90;;;;;;5057904;28;20418;-79
2022/03/16 10:00:33;;;;;;;20.90;14.43;;;14.00;99.90;;;;;;5050533;28;20453;-81
2022/03/16 10:03:17;;;;;;;19.17;12.90;;;13.90;99.90;;;;;;5052923;28;22525;-79
2022/03/16 10:06:07;;;;;;;18.97;12.83;;;14.10;99.90;;;;;;5049780;28;20449;-82
2022/03/16 10:15:14;;;;;;;25.10;16.30;;;13.90;99.90;;;;;;5043419;28;20448;-79
2022/03/16 10:18:02;;;;;;;20.13;15.13;;;14.00;99.90;;;;;;5045497;28;20978;-80
2022/03/16 10:20:47;;;;;;;20.00;13.77;;;12.80;99.90;;;;;;5029949;28;20484;-79
2022/03/16 10:23:32;;;;;;;21.23;14.90;;;13.20;99.90;;;;;;5043163;28;20449;-82
2022/03/16 10:26:18;;;;;;;16.00;12.57;;;14.00;99.90;;;;;;5041147;28;20509;-79
2022/03/16 10:29:04;;;;;;;20.83;15.67;;;14.90;99.90;;;;;;5048523;28;20531;-80
2022/03/16 10:32:09;;;;;;;25.63;16.17;;;15.30;99.90;;;;;;5045386;28;20433;-80
2022/03/16 10:34:55;;;;;;;21.40;15.50;;;15.10;99.90;;;;;;5040799;28;20495;-81
2022/03/16 10:37:40;;;;;;;16.30;13.80;;;15.60;99.90;;;;;;5041252;28;21365;-79
2022/03/16 10:40:26;;;;;;;18.83;14.77;;;16.20;99.90;;;;;;5039392;28;20512;-79
2022/03/16 10:49:22;;;;;;;17.37;13.93;;;15.40;99.90;;;;;;5041310;28;20786;-79
2022/03/16 10:52:11;;;;;;;17.97;14.67;;;15.00;99.90;;;;;;5035208;28;20771;-81
2022/03/16 10:54:56;;;;;;;19.50;15.03;;;15.00;99.90;;;;;;5048013;28;20442;-83
2022/03/16 10:57:43;;;;;;;19.33;14.83;;;15.10;99.90;;;;;;5043628;28;20426;-80
2022/03/16 11:00:28;;;;;;;15.77;13.70;;;14.10;99.90;;;;;;5040465;28;20473;-79
2022/03/16 11:03:15;;;;;;;19.13;13.70;;;14.10;99.90;;;;;;5040983;28;20512;-81
2022/03/16 11:06:00;;;;;;;18.40;15.53;;;15.20;99.90;;;;;;5043148;28;20933;-82
2022/03/16 11:08:44;;;;;;;18.80;15.60;;;16.30;99.90;;;;;;5046745;28;20458;-80
2022/03/16 11:14:33;;;;;;;17.20;14.20;;;16.30;99.90;;;;;;5047655;28;20422;-80
2022/03/16 11:17:17;;;;;;;17.07;12.97;;;15.00;99.90;;;;;;5050415;28;20524;-80
2022/03/16 11:20:05;;;;;;;18.73;14.47;;;15.00;99.90;;;;;;5039908;28;20964;-80
2022/03/16 11:26:21;;;;;;;29.60;13.93;;;14.40;99.90;;;;;;5046031;28;20560;-79
2022/03/16 11:29:34;;;;;;;17.57;14.17;;;14.70;99.90;;;;;;5052695;28;20511;-82
2022/03/16 11:32:19;;;;;;;15.70;12.10;;;14.00;99.90;;;;;;5043409;28;20441;-79
2022/03/16 11:35:09;;;;;;;16.97;12.00;;;14.50;99.90;;;;;;5055327;28;20817;-79
2022/03/16 11:37:58;;;;;;;18.47;14.10;;;15.50;99.90;;;;;;5055906;28;20432;-81
2022/03/16 11:40:47;;;;;;;16.70;13.60;;;14.40;99.90;;;;;;5052202;28;20445;-81
2022/03/16 11:43:31;;;;;;;15.53;12.63;;;14.60;99.90;;;;;;5054674;28;20459;-81
2022/03/16 11:46:28;;;;;;;17.27;12.90;;;14.90;99.90;;;;;;5048780;28;20510;-78
2022/03/16 11:49:27;;;;;;;17.80;13.70;;;15.20;99.90;;;;;;5045522;28;20433;-81
2022/03/16 11:52:12;;;;;;;22.40;14.20;;;15.60;99.90;;;;;;5048568;28;20429;-80
2022/03/16 11:54:57;;;;;;;15.83;13.50;;;15.10;99.90;;;;;;5054368;28;20472;-81
2022/03/16 11:57:56;;;;;;;14.27;12.47;;;15.10;99.90;;;;;;5029276;28;20420;-79
2022/03/16 12:00:41;;;;;;;15.47;12.43;;;14.90;99.90;;;;;;5050152;28;20424;-82
2022/03/16 12:03:26;;;;;;;16.93;11.97;;;15.20;99.90;;;;;;5049904;28;20950;-81
2022/03/16 12:06:12;;;;;;;18.63;12.20;;;14.80;99.90;;;;;;5039289;28;20520;-79
2022/03/16 12:08:59;;;;;;;21.30;13.63;;;15.00;99.90;;;;;;5045416;28;20823;-81
2022/03/16 12:15:21;;;;;;;19.27;13.50;;;15.40;99.90;;;;;;5051559;28;20481;-79
2022/03/16 12:18:24;;;;;;;21.37;13.57;;;15.70;99.90;;;;;;5051367;28;20521;-81
2022/03/16 12:21:10;;;;;;;13.90;11.87;;;15.80;99.90;;;;;;5038309;28;20430;-81
2022/03/16 12:25:08;;;;;;;16.60;11.40;;;16.70;99.90;;;;;;5055701;28;20445;-81
2022/03/16 12:30:05;;;;;;;18.20;12.23;;;15.60;99.90;;;;;;5049626;28;20561;-80
2022/03/16 12:32:57;;;;;;;15.70;12.07;;;15.10;99.90;;;;;;5049521;28;20502;-80
2022/03/16 12:35:41;;;;;;;15.07;12.57;;;15.70;99.90;;;;;;5050294;28;20233;-80
2022/03/16 12:38:29;;;;;;;16.00;12.90;;;15.60;99.90;;;;;;5044569;28;20461;-81
2022/03/16 12:44:19;;;;;;;16.17;12.20;;;14.90;99.90;;;;;;5048058;28;20555;-81
2022/03/16 12:47:21;;;;;;;16.57;11.67;;;16.00;99.90;;;;;;5045585;28;20417;-79
2022/03/16 12:50:28;;;;;;;13.20;10.40;;;15.90;99.90;;;;;;5048071;28;20416;-80
2022/03/16 12:53:29;;;;;;;19.43;11.70;;;15.30;99.90;;;;;;5033309;28;20970;-79
2022/03/16 12:56:43;;;;;;;14.37;11.07;;;15.30;99.90;;;;;;5031925;28;20536;-79
2022/03/16 12:59:31;;;;;;;12.47;11.23;;;15.20;99.90;;;;;;5038304;28;20486;-79
2022/03/16 13:02:20;;;;;;;22.33;13.27;;;15.80;99.90;;;;;;5004974;28;20417;-78
2022/03/16 13:05:09;;;;;;;17.80;12.27;;;14.80;99.90;;;;;;5003887;28;21036;-81
2022/03/16 13:07:54;;;;;;;14.60;13.03;;;15.40;99.90;;;;;;5036187;28;20450;-78
2022/03/16 13:13:37;;;;;;;14.60;10.73;;;15.50;99.90;;;;;;5027448;28;20430;-77
2022/03/16 13:16:35;;;;;;;18.03;12.60;;;15.90;99.90;;;;;;5029760;28;20411;-79
2022/03/16 13:19:28;;;;;;;17.13;12.30;;;15.60;99.90;;;;;;5022348;28;20509;-80
2022/03/16 13:22:17;;;;;;;13.33;11.70;;;15.70;99.90;;;;;;5036844;28;20491;-78
2022/03/16 13:25:03;;;;;;;16.30;12.43;;;16.30;99.90;;;;;;5032568;28;21349;-80
2022/03/16 13:27:51;;;;;;;15.30;11.70;;;16.20;99.90;;;;;;5034102;28;20449;-79
2022/03/16 13:30:37;;;;;;;14.63;11.10;;;17.50;99.90;;;;;;5020215;28;20566;-80
2022/03/16 13:33:24;;;;;;;15.80;12.40;;;17.10;99.90;;;;;;5018506;28;20414;-77
2022/03/16 13:36:10;;;;;;;12.60;11.27;;;17.00;99.90;;;;;;5034634;28;20426;-78
2022/03/16 13:38:55;;;;;;;11.30;9.93;;;17.10;99.90;;;;;;5050763;28;20402;-79
2022/03/16 13:42:04;;;;;;;14.50;11.90;;;17.10;99.90;;;;;;5050090;28;20484;-81
2022/03/16 13:44:52;;;;;;;13.60;11.83;;;17.50;99.40;;;;;;5055535;28;20480;-79
2022/03/16 13:47:36;;;;;;;11.60;9.30;;;17.30;99.10;;;;;;5038681;28;20474;-80
2022/03/16 13:50:25;;;;;;;13.83;11.50;;;16.60;99.90;;;;;;5035743;28;20540;-78
2022/03/16 13:53:15;;;;;;;15.30;11.40;;;15.80;99.90;;;;;;5045755;28;20406;-79
2022/03/16 13:56:18;;;;;;;13.53;11.30;;;15.20;99.90;;;;;;5054688;28;20985;-81
2022/03/16 13:59:09;;;;;;;17.87;12.93;;;15.70;99.90;;;;;;5050368;28;20421;-80
2022/03/16 14:02:09;;;;;;;18.30;12.80;;;16.20;99.90;;;;;;5052612;28;20873;-80
2022/03/16 14:04:57;;;;;;;13.80;10.87;;;16.90;99.90;;;;;;5045534;28;20524;-79
2022/03/16 14:07:51;;;;;;;13.40;11.13;;;17.50;99.90;;;;;;5047025;28;20461;-78
2022/03/16 14:10:37;;;;;;;14.93;11.30;;;16.90;99.20;;;;;;5041658;28;20435;-80
2022/03/16 14:13:25;;;;;;;14.20;12.77;;;16.80;99.90;;;;;;5047912;28;20433;-80
2022/03/16 14:16:14;;;;;;;13.13;11.80;;;16.20;99.90;;;;;;5047943;28;20408;-79
2022/03/16 14:18:59;;;;;;;14.83;11.33;;;15.50;99.90;;;;;;5044078;28;20498;-79
2022/03/16 14:21:43;;;;;;;18.23;10.40;;;15.50;99.90;;;;;;5050715;28;20556;-80
2022/03/16 14:24:28;;;;;;;11.60;10.40;;;15.40;99.90;;;;;;5048712;28;20412;-80
2022/03/16 14:27:16;;;;;;;14.07;10.23;;;15.20;99.90;;;;;;5036042;28;20447;-79
2022/03/16 14:30:00;;;;;;;12.87;10.70;;;15.10;99.90;;;;;;5045303;28;20418;-84
2022/03/16 14:32:48;;;;;;;15.00;10.40;;;15.30;99.90;;;;;;5060815;28;20406;-80
2022/03/16 14:35:35;;;;;;;13.67;11.20;;;15.20;99.90;;;;;;5053303;28;20417;-81
2022/03/16 14:38:21;;;;;;;12.43;10.30;;;15.50;99.90;;;;;;5044574;28;20425;-81
2022/03/16 14:41:07;;;;;;;11.50;10.30;;;15.80;99.90;;;;;;5045184;28;20421;-81
2022/03/16 14:43:51;;;;;;;11.00;9.63;;;16.10;99.90;;;;;;5056445;28;20476;-80